createdAt,value
2022-10-20T00:01:10.260Z,16.70
2022-10-20T00:03:38.149Z,16.60
2022-10-20T00:06:30.621Z,16.70
2022-10-20T00:09:00.655Z,16.40
2022-10-20T00:11:28.584Z,16.40
2022-10-20T00:13:57.402Z,16.40
2022-10-20T00:16:26.905Z,16.20
2022-10-20T00:18:55.274Z,16.30
2022-10-20T00:21:26.300Z,16.40
2022-10-20T00:23:54.126Z,16.40
2022-10-20T00:26:26.623Z,16.30
2022-10-20T00:28:54.437Z,16.10
2022-10-20T00:31:23.307Z,16.50
2022-10-20T00:33:50.075Z,16.20
2022-10-20T00:36:19.833Z,16.40
2022-10-20T00:38:47.423Z,16.40
2022-10-20T00:41:17.345Z,16.20
2022-10-20T00:43:45.451Z,16.40
2022-10-20T00:46:16.364Z,16.60
2022-10-20T00:48:49.210Z,16.40
2022-10-20T00:51:20.939Z,16.70
2022-10-20T00:53:50.917Z,16.90
2022-10-20T00:56:17.672Z,16.70
2022-10-20T00:58:44.592Z,16.60
2022-10-20T01:01:12.260Z,16.80
2022-10-20T01:03:48.959Z,16.60
2022-10-20T01:06:19.037Z,17.00
2022-10-20T01:08:45.938Z,16.60
2022-10-20T01:11:38.840Z,16.70
2022-10-20T01:14:22.465Z,16.60
2022-10-20T01:17:23.649Z,16.60
2022-10-20T01:20:08.251Z,16.50
2022-10-20T01:23:15.148Z,16.50
2022-10-20T01:25:50.989Z,16.50
2022-10-20T01:28:34.082Z,16.70
2022-10-20T01:31:13.415Z,16.80
2022-10-20T01:33:55.155Z,16.60
2022-10-20T01:36:28.923Z,16.20
2022-10-20T01:39:25.720Z,16.40
2022-10-20T01:42:04.921Z,16.40
2022-10-20T01:44:33.725Z,16.50
2022-10-20T01:47:01.288Z,16.40
2022-10-20T01:49:48.647Z,16.50
2022-10-20T01:52:38.559Z,16.10
2022-10-20T01:55:35.828Z,16.40
2022-10-20T01:58:36.008Z,16.10
2022-10-20T02:05:36.574Z,16.30
2022-10-20T02:09:01.691Z,16.60
2022-10-20T02:12:02.414Z,16.90
2022-10-20T02:14:30.038Z,16.80
2022-10-20T02:17:02.883Z,16.60
2022-10-20T02:19:35.459Z,16.80
2022-10-20T02:22:04.616Z,16.90
2022-10-20T02:24:37.230Z,16.70
2022-10-20T02:27:27.055Z,16.50
2022-10-20T02:30:16.163Z,16.30
2022-10-20T02:32:51.608Z,16.30
2022-10-20T02:35:23.916Z,16.60
2022-10-20T02:37:51.071Z,16.90
2022-10-20T02:40:17.929Z,16.80
2022-10-20T02:42:44.729Z,16.40
2022-10-20T02:45:11.528Z,16.20
2022-10-20T02:47:38.721Z,16.20
2022-10-20T02:50:08.051Z,16.40
2022-10-20T02:52:35.248Z,16.40
2022-10-20T02:55:02.150Z,16.30
2022-10-20T02:57:28.877Z,16.20
2022-10-20T02:59:55.612Z,16.10
2022-10-20T03:02:22.383Z,16.00
2022-10-20T03:04:49.179Z,16.00
2022-10-20T03:07:15.984Z,16.00
2022-10-20T03:09:44.105Z,16.00
2022-10-20T03:12:10.949Z,16.00
2022-10-20T03:14:37.711Z,16.00
2022-10-20T03:17:04.553Z,16.20
2022-10-20T03:19:31.351Z,16.20
2022-10-20T03:21:58.092Z,16.30
2022-10-20T03:24:24.911Z,16.30
2022-10-20T03:26:51.658Z,16.60
2022-10-20T03:29:18.415Z,16.90
2022-10-20T03:31:45.265Z,17.10
2022-10-20T03:34:12.722Z,16.50
2022-10-20T03:36:39.784Z,16.60
2022-10-20T03:39:06.607Z,16.40
2022-10-20T03:41:33.338Z,16.20
2022-10-20T03:44:00.129Z,16.20
2022-10-20T03:46:26.907Z,16.30
2022-10-20T03:48:53.653Z,16.60
2022-10-20T03:51:20.566Z,16.70
2022-10-20T03:53:47.296Z,16.70
2022-10-20T03:56:19.258Z,16.80
2022-10-20T03:58:46.571Z,16.80
2022-10-20T04:01:21.188Z,16.60
2022-10-20T04:03:47.994Z,16.40
2022-10-20T04:06:15.837Z,16.70
2022-10-20T04:08:42.730Z,16.20
2022-10-20T04:11:09.850Z,16.20
2022-10-20T04:13:36.610Z,16.70
2022-10-20T04:16:03.382Z,16.60
2022-10-20T04:18:31.583Z,16.70
2022-10-20T04:20:58.886Z,16.80
2022-10-20T04:23:25.659Z,17.00
2022-10-20T04:25:52.449Z,17.10
2022-10-20T04:28:20.877Z,17.10
2022-10-20T04:30:47.732Z,16.40
2022-10-20T04:33:15.109Z,16.60
2022-10-20T04:35:42.156Z,16.70
2022-10-20T04:38:09.077Z,16.80
2022-10-20T04:40:35.873Z,16.60
2022-10-20T04:43:02.720Z,16.80
2022-10-20T04:45:29.473Z,16.70
2022-10-20T04:47:56.211Z,16.80
2022-10-20T04:50:22.969Z,16.80
2022-10-20T04:52:51.240Z,16.90
2022-10-20T04:55:18.356Z,16.80
2022-10-20T04:57:45.096Z,16.90
2022-10-20T05:00:12.841Z,17.10
2022-10-20T05:02:39.550Z,16.10
2022-10-20T05:05:06.778Z,16.10
2022-10-20T05:07:33.832Z,16.50
2022-10-20T05:10:00.796Z,16.70
2022-10-20T05:12:28.328Z,16.80
2022-10-20T05:14:55.172Z,16.70
2022-10-20T05:17:21.897Z,16.80
2022-10-20T05:19:48.643Z,16.60
2022-10-20T05:22:15.362Z,16.70
2022-10-20T05:24:42.108Z,16.80
2022-10-20T05:27:08.839Z,16.50
2022-10-20T05:29:35.576Z,16.60
2022-10-20T05:32:02.319Z,16.70
2022-10-20T05:34:29.160Z,16.60
2022-10-20T05:36:56.105Z,16.50
2022-10-20T05:39:22.906Z,16.10
2022-10-20T05:41:49.636Z,15.90
2022-10-20T05:44:16.375Z,15.90
2022-10-20T05:46:43.150Z,16.10
2022-10-20T05:49:17.432Z,16.30
2022-10-20T05:51:45.671Z,16.60
2022-10-20T05:54:14.250Z,16.40
2022-10-20T05:56:42.070Z,16.40
2022-10-20T05:59:10.314Z,16.50
2022-10-20T06:01:47.746Z,16.20
2022-10-20T06:04:18.352Z,16.00
2022-10-20T06:06:45.263Z,15.60
2022-10-20T06:09:12.140Z,16.20
2022-10-20T06:11:39.781Z,16.60
2022-10-20T06:14:08.411Z,16.70
2022-10-20T06:16:35.415Z,16.80
2022-10-20T06:19:02.802Z,17.00
2022-10-20T06:21:32.634Z,17.00
2022-10-20T06:24:01.077Z,17.10
2022-10-20T06:26:31.904Z,17.00
2022-10-20T06:29:03.963Z,17.00
2022-10-20T06:31:41.349Z,16.70
2022-10-20T06:34:13.431Z,16.80
2022-10-20T06:36:42.031Z,16.90
2022-10-20T06:39:13.643Z,17.00
2022-10-20T06:41:41.114Z,16.70
2022-10-20T06:44:08.231Z,16.90
2022-10-20T06:46:36.934Z,17.30
2022-10-20T06:49:06.499Z,17.30
2022-10-20T06:51:35.236Z,16.90
2022-10-20T06:54:02.316Z,17.30
2022-10-20T06:56:32.366Z,17.50
2022-10-20T06:59:01.028Z,17.70
2022-10-20T07:01:33.960Z,17.60
2022-10-20T07:04:05.078Z,17.40
2022-10-20T07:06:35.633Z,17.50
2022-10-20T07:09:04.427Z,17.70
2022-10-20T07:11:32.757Z,17.80
2022-10-20T07:14:00.563Z,17.30
2022-10-20T07:16:30.888Z,16.50
2022-10-20T07:18:58.293Z,16.30
2022-10-20T07:21:32.341Z,16.60
2022-10-20T07:24:04.940Z,17.10
2022-10-20T07:26:34.958Z,17.50
2022-10-20T07:29:03.670Z,17.60
2022-10-20T07:31:35.131Z,17.90
2022-10-20T07:34:20.334Z,17.30
2022-10-20T07:36:51.266Z,16.80
2022-10-20T07:39:18.075Z,16.90
2022-10-20T07:41:47.191Z,17.70
2022-10-20T07:44:14.029Z,17.70
2022-10-20T07:46:40.767Z,16.50
2022-10-20T07:51:54.322Z,16.10
2022-10-20T07:54:21.049Z,16.40
2022-10-20T07:56:47.882Z,16.60
2022-10-20T07:59:14.866Z,16.80
2022-10-20T08:01:41.730Z,17.40
2022-10-20T08:04:08.700Z,17.00
2022-10-20T08:06:35.463Z,16.50
2022-10-20T08:09:02.365Z,16.60
2022-10-20T08:11:29.326Z,17.10
2022-10-20T08:13:56.062Z,17.00
2022-10-20T08:16:28.674Z,16.60
2022-10-20T08:18:59.666Z,17.00
2022-10-20T08:21:26.501Z,17.00
2022-10-20T08:23:53.219Z,17.20
2022-10-20T08:26:23.310Z,17.50
2022-10-20T08:28:53.832Z,17.60
2022-10-20T08:31:21.288Z,17.50
2022-10-20T08:33:52.372Z,17.20
2022-10-20T08:36:19.996Z,17.90
2022-10-20T08:38:46.754Z,17.50
2022-10-20T08:41:21.545Z,17.20
2022-10-20T08:43:51.367Z,16.90
2022-10-20T08:46:21.295Z,17.50
2022-10-20T08:48:48.953Z,16.80
2022-10-20T08:51:22.507Z,17.20
2022-10-20T08:53:55.000Z,17.50
2022-10-20T08:56:25.814Z,17.20
2022-10-20T08:58:52.885Z,17.50
2022-10-20T09:01:33.411Z,17.70
2022-10-20T09:04:19.015Z,17.50
2022-10-20T09:07:02.570Z,17.80
2022-10-20T09:09:31.435Z,17.70
2022-10-20T09:12:06.139Z,17.80
2022-10-20T09:14:36.761Z,17.90
2022-10-20T09:17:07.970Z,17.80
2022-10-20T09:19:36.507Z,18.20
2022-10-20T09:22:06.898Z,18.40
2022-10-20T09:24:36.220Z,18.50
2022-10-20T09:27:23.332Z,18.20
2022-10-20T09:29:50.217Z,18.60
2022-10-20T09:32:50.928Z,18.70
2022-10-20T09:35:35.964Z,19.30
2022-10-20T09:38:05.804Z,19.40
2022-10-20T09:40:33.039Z,19.40
2022-10-20T09:43:10.884Z,19.90
2022-10-20T09:45:50.287Z,19.90
2022-10-20T09:48:29.483Z,19.60
2022-10-20T09:50:58.593Z,19.70
2022-10-20T09:53:51.281Z,19.70
2022-10-20T09:56:41.017Z,19.60
2022-10-20T09:59:22.284Z,19.70
2022-10-20T10:02:00.653Z,19.80
2022-10-20T10:04:49.189Z,20.00
2022-10-20T10:07:22.012Z,20.00
2022-10-20T10:10:03.917Z,20.30
2022-10-20T10:12:37.414Z,20.80
2022-10-20T10:15:22.291Z,20.60
2022-10-20T10:17:50.263Z,20.30
2022-10-20T10:20:16.907Z,20.20
2022-10-20T10:22:44.053Z,20.60
2022-10-20T10:25:21.580Z,20.40
2022-10-20T10:28:06.950Z,20.20
2022-10-20T10:30:37.328Z,20.50
2022-10-20T10:33:28.675Z,20.10
2022-10-20T10:35:55.823Z,20.30
2022-10-20T10:38:22.725Z,20.30
2022-10-20T10:41:30.427Z,20.40
2022-10-20T10:44:05.875Z,20.70
2022-10-20T10:47:12.950Z,20.60
2022-10-20T10:50:09.528Z,20.30
2022-10-20T10:52:42.052Z,20.30
2022-10-20T10:55:47.878Z,20.80
2022-10-20T10:58:35.794Z,21.50
2022-10-20T11:01:58.850Z,21.00
2022-10-20T11:04:31.163Z,20.80
2022-10-20T11:07:16.218Z,21.30
2022-10-20T11:10:16.342Z,21.20
2022-10-20T11:12:48.849Z,21.20
2022-10-20T11:15:35.087Z,21.30
2022-10-20T11:18:41.620Z,21.50
2022-10-20T11:21:19.531Z,21.40
2022-10-20T11:24:06.361Z,21.60
2022-10-20T11:26:41.009Z,21.00
2022-10-20T11:29:27.642Z,20.90
2022-10-20T11:32:08.390Z,21.00
2022-10-20T11:34:47.205Z,21.20
2022-10-20T11:37:24.322Z,21.00
2022-10-20T11:39:57.497Z,20.70
2022-10-20T11:42:38.309Z,20.80
2022-10-20T11:45:23.186Z,20.90
2022-10-20T11:48:00.252Z,20.70
2022-10-20T11:50:27.479Z,21.20
2022-10-20T11:53:03.886Z,20.70
2022-10-20T11:55:43.807Z,20.80
2022-10-20T11:58:23.174Z,20.50
2022-10-20T12:00:58.959Z,20.40
2022-10-20T12:03:53.582Z,20.30
2022-10-20T12:06:48.032Z,20.40
2022-10-20T12:09:26.795Z,20.40
2022-10-20T12:12:18.971Z,20.30
2022-10-20T12:14:58.160Z,20.60
2022-10-20T12:17:36.434Z,20.40
2022-10-20T12:20:23.493Z,20.40
2022-10-20T12:22:52.849Z,20.60
2022-10-20T12:25:26.205Z,20.40
2022-10-20T12:28:32.153Z,20.50
2022-10-20T12:31:02.221Z,20.20
2022-10-20T12:33:39.472Z,20.20
2022-10-20T12:36:34.667Z,20.30
2022-10-20T12:39:09.607Z,20.30
2022-10-20T12:41:42.035Z,20.10
2022-10-20T12:44:17.153Z,20.10
2022-10-20T12:46:59.386Z,20.60
2022-10-20T12:49:33.639Z,20.20
2022-10-20T12:52:02.667Z,20.30
2022-10-20T12:54:39.643Z,20.30
2022-10-20T12:57:36.810Z,21.10
2022-10-20T13:00:28.767Z,20.50
2022-10-20T13:02:57.681Z,21.40
2022-10-20T13:05:27.645Z,21.40
2022-10-20T13:08:01.695Z,21.50
2022-10-20T13:10:31.577Z,20.90
2022-10-20T13:13:01.726Z,20.80
2022-10-20T13:15:43.462Z,20.60
2022-10-20T13:18:13.614Z,21.30
2022-10-20T13:20:51.959Z,21.00
2022-10-20T13:23:30.620Z,21.40
2022-10-20T13:25:59.147Z,21.30
2022-10-20T13:28:30.939Z,21.30
2022-10-20T13:31:16.857Z,21.60
2022-10-20T13:34:08.428Z,21.10
2022-10-20T13:36:47.901Z,21.40
2022-10-20T13:39:43.075Z,20.80
2022-10-20T13:42:49.547Z,21.60
2022-10-20T13:45:21.631Z,21.90
2022-10-20T13:48:25.064Z,21.60
2022-10-20T13:51:00.192Z,21.30
2022-10-20T13:53:33.052Z,21.50
2022-10-20T13:56:04.803Z,21.20
2022-10-20T13:58:32.201Z,21.10
2022-10-20T14:01:02.449Z,21.10
2022-10-20T14:03:31.803Z,21.20
2022-10-20T14:05:59.303Z,21.70
2022-10-20T14:08:26.637Z,21.70
2022-10-20T14:10:58.529Z,21.00
2022-10-20T14:13:31.264Z,21.40
2022-10-20T14:16:00.335Z,21.20
2022-10-20T14:18:30.477Z,21.20
2022-10-20T14:21:03.108Z,21.30
2022-10-20T14:23:38.482Z,21.70
2022-10-20T14:26:10.228Z,21.90
2022-10-20T14:28:37.549Z,22.00
2022-10-20T14:31:05.438Z,21.70
2022-10-20T14:33:35.282Z,21.70
2022-10-20T14:36:04.542Z,21.50
2022-10-20T14:38:38.914Z,21.40
2022-10-20T14:41:07.802Z,21.70
2022-10-20T14:43:40.856Z,21.80
2022-10-20T14:50:07.793Z,21.50
2022-10-20T14:53:01.076Z,21.50
2022-10-20T15:06:15.161Z,20.70
2022-10-20T15:13:14.448Z,20.50
2022-10-20T15:15:41.579Z,20.30
2022-10-20T15:18:13.608Z,20.10
2022-10-20T15:20:42.520Z,20.20
2022-10-20T15:23:14.105Z,20.50
2022-10-20T15:26:06.197Z,20.40
2022-10-20T15:28:37.469Z,20.40
2022-10-20T15:31:29.181Z,20.40
2022-10-20T15:33:57.761Z,20.30
2022-10-20T15:36:29.484Z,20.20
2022-10-20T15:38:57.416Z,20.00
2022-10-20T15:41:36.361Z,20.30
2022-10-20T15:44:15.622Z,20.30
2022-10-20T15:46:44.820Z,20.50
2022-10-20T15:49:12.929Z,20.60
2022-10-20T15:51:42.588Z,20.30
2022-10-20T15:54:16.023Z,20.50
2022-10-20T15:56:43.522Z,20.60
2022-10-20T15:59:10.777Z,20.50
2022-10-20T16:01:38.364Z,20.60
2022-10-20T16:04:26.445Z,20.30
2022-10-20T16:06:57.689Z,20.30
2022-10-20T16:09:26.415Z,20.10
2022-10-20T16:11:53.661Z,20.10
2022-10-20T16:14:20.796Z,20.20
2022-10-20T16:16:48.137Z,20.20
2022-10-20T16:19:15.283Z,19.90
2022-10-20T16:21:42.424Z,19.90
2022-10-20T16:24:10.391Z,20.20
2022-10-20T16:26:37.571Z,20.00
2022-10-20T16:29:04.731Z,19.70
2022-10-20T16:31:31.857Z,19.90
2022-10-20T16:34:00.212Z,20.10
2022-10-20T16:36:27.509Z,20.30
2022-10-20T16:38:57.800Z,20.30
2022-10-20T16:41:25.331Z,20.40
2022-10-20T16:43:53.714Z,20.40
2022-10-20T16:46:22.960Z,20.20
2022-10-20T16:48:50.109Z,20.10
2022-10-20T16:51:17.870Z,20.00
2022-10-20T16:53:45.086Z,20.10
2022-10-20T16:56:15.379Z,20.00
2022-10-20T16:58:45.513Z,19.90
2022-10-20T17:01:14.238Z,20.00
2022-10-20T17:03:46.474Z,20.00
2022-10-20T17:06:14.631Z,20.00
2022-10-20T17:08:42.201Z,19.90
2022-10-20T17:11:29.892Z,19.70
2022-10-20T17:13:57.691Z,19.90
2022-10-20T17:16:30.085Z,19.90
2022-10-20T17:18:58.584Z,19.90
2022-10-20T17:21:26.479Z,19.40
2022-10-20T17:23:53.693Z,19.20
2022-10-20T17:26:22.904Z,19.20
2022-10-20T17:28:50.437Z,19.50
2022-10-20T17:31:18.567Z,19.50
2022-10-20T17:33:51.493Z,19.70
2022-10-20T17:36:19.692Z,19.70
2022-10-20T17:38:46.893Z,19.60
2022-10-20T17:41:15.741Z,19.80
2022-10-20T17:43:43.204Z,19.20
2022-10-20T17:46:13.303Z,19.70
2022-10-20T17:48:41.131Z,19.80
2022-10-20T17:51:16.125Z,19.80
2022-10-20T17:53:45.605Z,19.50
2022-10-20T17:56:35.298Z,19.80
2022-10-20T17:59:04.368Z,19.70
2022-10-20T18:01:34.222Z,19.70
2022-10-20T18:04:07.084Z,19.50
2022-10-20T18:06:35.234Z,19.80
2022-10-20T18:09:10.751Z,19.50
2022-10-20T18:11:39.107Z,19.70
2022-10-20T18:14:06.735Z,19.80
2022-10-20T18:16:35.754Z,19.80
2022-10-20T18:19:03.819Z,20.00
2022-10-20T18:21:32.110Z,20.10
2022-10-20T18:24:07.546Z,20.10
2022-10-20T18:26:36.642Z,20.20
2022-10-20T18:29:06.035Z,20.20
2022-10-20T18:31:34.709Z,20.10
2022-10-20T18:34:07.410Z,20.20
2022-10-20T18:36:38.138Z,20.00
2022-10-20T18:39:08.724Z,20.00
2022-10-20T18:41:38.655Z,20.20
2022-10-20T18:44:09.892Z,19.80
2022-10-20T18:46:37.495Z,19.70
2022-10-20T18:49:07.111Z,19.90
2022-10-20T18:51:35.352Z,19.90
2022-10-20T18:54:03.361Z,19.80
2022-10-20T18:56:31.030Z,20.00
2022-10-20T18:59:05.925Z,20.00
2022-10-20T19:01:35.543Z,19.60
2022-10-20T19:04:03.955Z,19.70
2022-10-20T19:06:33.491Z,19.70
2022-10-20T19:09:04.166Z,19.50
2022-10-20T19:11:34.190Z,19.30
2022-10-20T19:14:01.703Z,19.70
2022-10-20T19:16:31.185Z,19.30
2022-10-20T19:18:59.682Z,19.30
2022-10-20T19:21:28.365Z,19.60
2022-10-20T19:24:10.158Z,19.80
2022-10-20T19:26:43.071Z,19.60
2022-10-20T19:29:15.740Z,19.30
2022-10-20T19:32:02.398Z,19.60
2022-10-20T19:34:33.161Z,19.50
2022-10-20T19:37:00.934Z,19.50
2022-10-20T19:39:35.602Z,19.30
2022-10-20T19:42:03.595Z,19.60
2022-10-20T19:44:31.259Z,19.70
2022-10-20T19:46:59.073Z,19.80
2022-10-20T19:49:26.765Z,19.70
2022-10-20T19:51:53.994Z,19.30
2022-10-20T19:54:21.289Z,19.30
2022-10-20T19:56:48.448Z,19.50
2022-10-20T19:59:15.716Z,19.30
2022-10-20T20:01:42.842Z,19.30
2022-10-20T20:04:10.827Z,18.70
2022-10-20T20:06:38.116Z,19.20
2022-10-20T20:09:07.538Z,19.30
2022-10-20T20:11:36.452Z,19.30
2022-10-20T20:14:10.196Z,18.80
2022-10-20T20:16:37.696Z,19.30
2022-10-20T20:19:04.906Z,19.30
2022-10-20T20:21:32.052Z,19.30
2022-10-20T20:24:01.611Z,19.50
2022-10-20T20:26:34.233Z,19.50
2022-10-20T20:29:01.724Z,19.50
2022-10-20T20:31:29.780Z,19.40
2022-10-20T20:33:57.192Z,19.70
2022-10-20T20:36:26.991Z,19.40
2022-10-20T20:38:57.487Z,18.70
2022-10-20T20:41:30.201Z,18.70
2022-10-20T20:43:57.507Z,18.30
2022-10-20T20:46:28.868Z,18.30
2022-10-20T20:48:55.742Z,18.30
2022-10-20T20:51:22.559Z,18.00
2022-10-20T20:53:49.350Z,18.30
2022-10-20T20:56:20.506Z,18.70
2022-10-20T20:58:49.998Z,19.10
2022-10-20T21:01:23.384Z,19.60
2022-10-20T21:03:55.613Z,19.70
2022-10-20T21:06:28.762Z,19.60
2022-10-20T21:09:01.547Z,19.80
2022-10-20T21:11:28.461Z,19.70
2022-10-20T21:13:58.722Z,19.30
2022-10-20T21:16:30.852Z,19.70
2022-10-20T21:19:04.846Z,19.40
2022-10-20T21:21:34.863Z,18.90
2022-10-20T21:24:03.101Z,18.60
2022-10-20T21:26:30.568Z,19.00
2022-10-20T21:28:58.258Z,19.10
2022-10-20T21:31:27.398Z,18.90
2022-10-20T21:34:05.136Z,18.70
2022-10-20T21:36:35.279Z,19.00
2022-10-20T21:39:04.598Z,18.70
2022-10-20T21:41:34.670Z,18.30
2022-10-20T21:44:03.806Z,18.50
2022-10-20T21:46:35.224Z,18.40
2022-10-20T21:49:06.193Z,18.70
2022-10-20T21:51:37.387Z,18.80
2022-10-20T21:54:07.606Z,19.00
2022-10-20T21:56:36.779Z,19.00
2022-10-20T21:59:08.130Z,18.90
2022-10-20T22:01:35.015Z,19.00
2022-10-20T22:04:01.839Z,19.10
2022-10-20T22:06:28.662Z,19.20
2022-10-20T22:08:58.873Z,19.10
2022-10-20T22:11:32.955Z,18.90
2022-10-20T22:14:00.086Z,18.90
2022-10-20T22:16:33.764Z,18.80
2022-10-20T22:19:07.807Z,18.90
2022-10-20T22:21:40.354Z,19.00
2022-10-20T22:24:07.560Z,18.80
2022-10-20T22:26:35.034Z,18.30
2022-10-20T22:29:04.878Z,17.90
2022-10-20T22:31:31.806Z,18.00
2022-10-20T22:34:01.984Z,18.40
2022-10-20T22:36:28.993Z,17.80
2022-10-20T22:38:56.439Z,18.20
2022-10-20T22:41:23.372Z,18.50
2022-10-20T22:43:50.217Z,18.60
2022-10-20T22:46:17.337Z,18.70
2022-10-20T22:48:46.071Z,18.80
2022-10-20T22:51:13.503Z,18.70
2022-10-20T22:53:40.927Z,18.60
2022-10-20T22:56:18.178Z,18.60
2022-10-20T22:58:45.708Z,18.50
2022-10-20T23:01:20.005Z,18.70
2022-10-20T23:03:47.475Z,18.50
2022-10-20T23:06:22.102Z,18.50
2022-10-20T23:08:52.446Z,18.40
2022-10-20T23:11:20.211Z,18.50
2022-10-20T23:13:47.731Z,18.70
2022-10-20T23:16:14.963Z,18.70
2022-10-20T23:18:41.936Z,18.60
2022-10-20T23:21:08.988Z,18.30
2022-10-20T23:23:37.331Z,17.30
2022-10-20T23:26:06.227Z,17.40
2022-10-20T23:28:34.659Z,17.10
2022-10-20T23:31:22.231Z,16.90
2022-10-20T23:33:51.505Z,17.20
2022-10-20T23:36:18.246Z,17.00
2022-10-20T23:38:46.271Z,17.60
2022-10-20T23:41:13.963Z,16.90
2022-10-20T23:43:40.944Z,17.30
2022-10-20T23:46:08.564Z,17.10
2022-10-20T23:48:35.700Z,17.20
2022-10-20T23:51:02.506Z,17.60
2022-10-20T23:53:29.501Z,17.60
2022-10-20T23:55:56.337Z,17.40
2022-10-20T23:58:23.282Z,17.70
